Time;durP1;ratioP1;P1;durP2;ratioP2;P2;SDS_P1;SDS_P2;PMS_P1;PMS_P2;Temp;Humidity;BMP_temperature;BMP_pressure;BME280_temperature;BME280_humidity;BME280_pressure;Samples;Min_cycle;Max_cycle;Signal;HPM_P1;HPM_P2
2022/07/07 00:00:55;;;;;;;;;;;26.90;44.90;;;;;;2099158;28;868;-79
2022/07/07 00:01:55;;;;;;;;;;;26.90;44.80;;;;;;2099777;28;897;-79
2022/07/07 00:02:56;;;;;;;;;;;26.90;44.70;;;;;;2099083;28;1464;-79
2022/07/07 00:03:57;;;;;;;;;;;26.90;44.60;;;;;;2090935;28;1223;-79
2022/07/07 00:04:57;;;;;;;;;;;26.90;44.70;;;;;;2099129;28;1357;-80
2022/07/07 00:05:58;;;;;;;;;;;26.90;44.70;;;;;;2090780;28;1330;-79
2022/07/07 00:06:59;;;;;;;;;;;26.80;45.00;;;;;;2099093;28;881;-79
2022/07/07 00:08:00;;;;;;;;;;;26.90;45.00;;;;;;2099761;28;916;-79
2022/07/07 00:09:00;;;;;;;;;;;26.90;45.00;;;;;;2099130;28;1152;-79
2022/07/07 00:10:01;;;;;;;;;;;26.90;44.90;;;;;;2099276;28;826;-79
2022/07/07 00:11:01;;;;;;;;;;;26.90;44.80;;;;;;2099794;28;987;-80
2022/07/07 00:12:01;;;;;;;;;;;26.90;45.00;;;;;;2099719;28;1087;-79
2022/07/07 00:13:02;;;;;;;;;;;26.80;44.90;;;;;;2098982;28;1291;-79
2022/07/07 00:14:02;;;;;;;;;;;26.90;44.70;;;;;;2090873;28;1255;-79
2022/07/07 00:15:02;;;;;;;;;;;26.90;44.50;;;;;;2099015;28;1267;-79
2022/07/07 00:16:03;;;;;;;;;;;26.90;44.60;;;;;;2091050;28;1376;-79
2022/07/07 00:17:03;;;;;;;;;;;26.90;44.60;;;;;;2099084;28;1953;-79
2022/07/07 00:18:03;;;;;;;;;;;26.90;44.70;;;;;;2090862;28;1344;-79
2022/07/07 00:19:04;;;;;;;;;;;26.90;44.80;;;;;;2099120;28;833;-79
2022/07/07 00:20:04;;;;;;;;;;;26.90;44.60;;;;;;2099752;28;1036;-79
2022/07/07 00:21:05;;;;;;;;;;;26.90;44.90;;;;;;2099240;28;1220;-79
2022/07/07 00:22:05;;;;;;;;;;;26.90;45.00;;;;;;2099140;28;1039;-79
2022/07/07 00:23:06;;;;;;;;;;;26.90;44.70;;;;;;2099095;28;1262;-79
2022/07/07 00:24:06;;;;;;;;;;;26.90;44.60;;;;;;2099096;28;1032;-79
2022/07/07 00:25:07;;;;;;;;;;;26.80;45.00;;;;;;2099821;28;1176;-79
2022/07/07 00:26:07;;;;;;;;;;;26.90;44.50;;;;;;2099068;28;1241;-79
2022/07/07 00:27:08;;;;;;;;;;;26.90;44.90;;;;;;2090609;28;1239;-79
2022/07/07 00:28:08;;;;;;;;;;;26.90;44.60;;;;;;2098961;28;1375;-79
2022/07/07 00:29:09;;;;;;;;;;;26.90;44.60;;;;;;2090812;28;1326;-79
2022/07/07 00:30:09;;;;;;;;;;;26.80;44.50;;;;;;2099051;28;829;-79
2022/07/07 00:31:09;;;;;;;;;;;26.90;44.60;;;;;;2099739;28;1059;-79
2022/07/07 00:32:10;;;;;;;;;;;26.90;44.60;;;;;;2099421;28;984;-79
2022/07/07 00:33:10;;;;;;;;;;;26.90;44.70;;;;;;2099386;28;845;-79
2022/07/07 00:34:10;;;;;;;;;;;26.90;44.60;;;;;;2099245;28;885;-79
2022/07/07 00:35:11;;;;;;;;;;;26.80;44.60;;;;;;2099679;28;1198;-79
2022/07/07 00:36:11;;;;;;;;;;;26.90;44.60;;;;;;2100134;28;1312;-79
2022/07/07 00:37:12;;;;;;;;;;;26.90;44.50;;;;;;2091901;28;1902;-79
2022/07/07 00:38:12;;;;;;;;;;;26.80;44.90;;;;;;2100102;28;1415;-79
2022/07/07 00:39:13;;;;;;;;;;;26.90;44.70;;;;;;2100187;28;944;-79
2022/07/07 00:40:13;;;;;;;;;;;26.80;44.70;;;;;;2100836;28;941;-79
2022/07/07 00:41:14;;;;;;;;;;;26.90;44.90;;;;;;2100243;28;1167;-79
2022/07/07 00:42:15;;;;;;;;;;;26.90;44.80;;;;;;2091789;28;1200;-79
2022/07/07 00:43:15;;;;;;;;;;;26.80;44.70;;;;;;2100385;28;999;-79
2022/07/07 00:44:16;;;;;;;;;;;26.80;44.70;;;;;;2100700;28;1011;-79
2022/07/07 00:45:16;;;;;;;;;;;26.80;44.80;;;;;;2099874;28;1270;-80
2022/07/07 00:46:16;;;;;;;;;;;26.90;44.90;;;;;;2091861;28;1399;-79
2022/07/07 00:47:17;;;;;;;;;;;26.90;44.60;;;;;;2100131;28;915;-79
2022/07/07 00:48:17;;;;;;;;;;;26.80;44.70;;;;;;2100125;28;1302;-79
2022/07/07 00:49:17;;;;;;;;;;;26.80;44.70;;;;;;2091976;28;1206;-79
2022/07/07 00:50:18;;;;;;;;;;;26.90;44.90;;;;;;2100281;28;878;-79
2022/07/07 00:51:18;;;;;;;;;;;26.80;44.80;;;;;;2100743;28;928;-79
2022/07/07 00:52:18;;;;;;;;;;;26.80;44.70;;;;;;2100579;28;1047;-79
2022/07/07 00:53:19;;;;;;;;;;;26.80;44.80;;;;;;2099921;28;1285;-79
2022/07/07 00:54:19;;;;;;;;;;;26.80;44.60;;;;;;2100045;28;860;-80
2022/07/07 00:55:19;;;;;;;;;;;26.80;44.70;;;;;;2100867;28;1307;-79
2022/07/07 00:56:20;;;;;;;;;;;26.90;44.60;;;;;;2100001;28;1234;-79
2022/07/07 00:57:20;;;;;;;;;;;26.80;44.90;;;;;;2091672;28;1944;-79
2022/07/07 00:58:21;;;;;;;;;;;26.80;44.80;;;;;;2100124;28;1130;-79
2022/07/07 00:59:21;;;;;;;;;;;26.90;44.70;;;;;;2100046;28;1258;-79
2022/07/07 01:00:21;;;;;;;;;;;26.80;44.80;;;;;;2091850;28;1380;-79
2022/07/07 01:01:23;;;;;;;;;;;26.90;44.90;;;;;;2100095;28;840;-79
2022/07/07 01:02:23;;;;;;;;;;;26.80;44.70;;;;;;2108360;28;1250;-79
2022/07/07 01:03:24;;;;;;;;;;;26.90;44.70;;;;;;2099968;28;1292;-79
2022/07/07 01:04:24;;;;;;;;;;;26.90;44.70;;;;;;2091542;28;1224;-79
2022/07/07 01:05:24;;;;;;;;;;;26.90;44.80;;;;;;2091512;28;1238;-79
2022/07/07 01:06:25;;;;;;;;;;;26.90;44.80;;;;;;2100003;28;789;-79
2022/07/07 01:07:25;;;;;;;;;;;26.90;44.70;;;;;;2099975;28;1226;-79
2022/07/07 01:08:25;;;;;;;;;;;26.90;44.80;;;;;;2099950;28;1386;-79
2022/07/07 01:09:26;;;;;;;;;;;26.90;44.70;;;;;;2099777;28;1382;-80
2022/07/07 01:10:26;;;;;;;;;;;26.90;44.50;;;;;;2091698;28;1281;-79
2022/07/07 01:11:27;;;;;;;;;;;26.90;44.60;;;;;;2099987;28;825;-79
2022/07/07 01:12:27;;;;;;;;;;;26.80;44.60;;;;;;2100544;28;991;-79
2022/07/07 01:13:27;;;;;;;;;;;26.90;44.60;;;;;;2100599;28;908;-79
2022/07/07 01:14:29;;;;;;;;;;;26.80;44.60;;;;;;2100422;28;1189;-79
2022/07/07 01:15:30;;;;;;;;;;;26.80;44.60;;;;;;2100024;28;1364;-79
2022/07/07 01:16:30;;;;;;;;;;;26.80;44.50;;;;;;2091783;28;1403;-79
2022/07/07 01:17:30;;;;;;;;;;;26.90;44.80;;;;;;2100166;28;1937;-79
2022/07/07 01:18:31;;;;;;;;;;;26.80;44.80;;;;;;2091986;28;1351;-79
2022/07/07 01:19:31;;;;;;;;;;;26.90;44.90;;;;;;2100013;28;1212;-79
2022/07/07 01:20:31;;;;;;;;;;;26.80;44.70;;;;;;2091533;28;1245;-79
2022/07/07 01:21:32;;;;;;;;;;;26.80;44.60;;;;;;2099692;28;1411;-79
2022/07/07 01:22:32;;;;;;;;;;;26.80;44.70;;;;;;2099743;28;1124;-79
2022/07/07 01:23:33;;;;;;;;;;;26.90;44.70;;;;;;2091486;28;1251;-79
2022/07/07 01:24:33;;;;;;;;;;;26.80;44.70;;;;;;2099835;28;1184;-79
2022/07/07 01:25:33;;;;;;;;;;;26.80;44.70;;;;;;2099675;28;1136;-80
2022/07/07 01:26:34;;;;;;;;;;;26.90;44.70;;;;;;2091457;28;1230;-79
2022/07/07 01:27:34;;;;;;;;;;;26.90;44.50;;;;;;2099973;28;809;-79
2022/07/07 01:28:34;;;;;;;;;;;26.80;44.70;;;;;;2100577;28;911;-79
2022/07/07 01:29:36;;;;;;;;;;;26.80;44.80;;;;;;2099846;28;1252;-79
2022/07/07 01:30:36;;;;;;;;;;;26.80;44.60;;;;;;2091583;28;1242;-79
2022/07/07 01:31:36;;;;;;;;;;;26.90;44.50;;;;;;2091575;28;1333;-80
2022/07/07 01:32:37;;;;;;;;;;;26.80;44.80;;;;;;2091714;28;1863;-79
2022/07/07 01:33:37;;;;;;;;;;;26.80;44.40;;;;;;2100273;28;987;-79
2022/07/07 01:34:37;;;;;;;;;;;26.80;44.50;;;;;;2099991;28;1430;-80
2022/07/07 01:35:38;;;;;;;;;;;26.80;44.80;;;;;;2100206;28;906;-79
2022/07/07 01:36:38;;;;;;;;;;;26.90;44.60;;;;;;2101001;28;1902;-79
2022/07/07 01:37:39;;;;;;;;;;;26.80;44.70;;;;;;2100756;28;889;-79
2022/07/07 01:38:39;;;;;;;;;;;26.80;44.70;;;;;;2100705;28;845;-80
2022/07/07 01:39:39;;;;;;;;;;;26.90;44.50;;;;;;2100759;28;879;-79
2022/07/07 01:40:40;;;;;;;;;;;26.80;44.60;;;;;;2100848;28;1023;-80
2022/07/07 01:41:40;;;;;;;;;;;26.80;44.70;;;;;;2100855;28;801;-79
2022/07/07 01:42:41;;;;;;;;;;;26.80;44.50;;;;;;2100849;28;961;-79
2022/07/07 01:43:41;;;;;;;;;;;26.80;44.50;;;;;;2100952;28;860;-80
2022/07/07 01:44:42;;;;;;;;;;;26.80;44.70;;;;;;2101015;28;1303;-79
2022/07/07 01:45:42;;;;;;;;;;;26.80;44.60;;;;;;2100007;28;1258;-79
2022/07/07 01:46:43;;;;;;;;;;;26.80;44.60;;;;;;2099665;28;968;-79
2022/07/07 01:47:43;;;;;;;;;;;26.80;44.50;;;;;;2100714;28;903;-79
2022/07/07 01:48:43;;;;;;;;;;;26.80;44.70;;;;;;2100752;28;876;-79
2022/07/07 01:49:44;;;;;;;;;;;26.80;44.50;;;;;;2100761;28;1036;-79
2022/07/07 01:50:44;;;;;;;;;;;26.80;44.50;;;;;;2100197;28;1245;-79
2022/07/07 01:51:45;;;;;;;;;;;26.80;44.60;;;;;;2091783;28;1266;-79
2022/07/07 01:52:45;;;;;;;;;;;26.80;44.50;;;;;;2100187;28;1259;-79
2022/07/07 01:53:45;;;;;;;;;;;26.80;44.60;;;;;;2091788;28;1265;-79
2022/07/07 01:54:46;;;;;;;;;;;26.80;44.60;;;;;;2100091;28;1368;-79
2022/07/07 01:55:47;;;;;;;;;;;26.80;44.50;;;;;;2100235;28;904;-79
2022/07/07 01:56:47;;;;;;;;;;;26.80;44.60;;;;;;2099882;28;1897;-79
2022/07/07 01:57:47;;;;;;;;;;;26.80;44.60;;;;;;2100167;28;917;-79
2022/07/07 01:58:48;;;;;;;;;;;26.80;44.60;;;;;;2100734;28;1035;-79
2022/07/07 01:59:48;;;;;;;;;;;26.80;44.60;;;;;;2100826;28;843;-79
2022/07/07 02:00:49;;;;;;;;;;;26.80;44.50;;;;;;2100878;28;842;-79
2022/07/07 02:01:49;;;;;;;;;;;26.80;44.50;;;;;;2099992;28;1307;-79
2022/07/07 02:02:50;;;;;;;;;;;26.80;44.50;;;;;;2091739;28;1393;-79
2022/07/07 02:03:50;;;;;;;;;;;26.80;44.70;;;;;;2100050;28;892;-79
2022/07/07 02:04:50;;;;;;;;;;;26.80;44.50;;;;;;2099723;28;1275;-79
2022/07/07 02:05:51;;;;;;;;;;;26.80;44.60;;;;;;2091838;28;1234;-79
2022/07/07 02:06:51;;;;;;;;;;;26.80;44.60;;;;;;2091554;28;1274;-79
2022/07/07 02:07:51;;;;;;;;;;;26.80;44.60;;;;;;2100172;28;849;-79
2022/07/07 02:08:52;;;;;;;;;;;26.80;44.70;;;;;;2100916;28;1020;-79
2022/07/07 02:09:52;;;;;;;;;;;26.80;44.70;;;;;;2100749;28;1238;-79
2022/07/07 02:12:11;;;;;;;;;;;26.80;44.50;;;;;;2100783;28;620;-79
2022/07/07 02:13:12;;;;;;;;;;;26.80;44.70;;;;;;2099957;28;1241;-79
2022/07/07 02:14:12;;;;;;;;;;;26.80;44.60;;;;;;2100187;28;948;-79
2022/07/07 02:15:12;;;;;;;;;;;26.80;44.70;;;;;;2100458;28;1153;-79
2022/07/07 02:16:13;;;;;;;;;;;26.80;44.70;;;;;;2100156;28;1245;-79
2022/07/07 02:17:13;;;;;;;;;;;26.80;44.60;;;;;;2100158;28;1965;-79
2022/07/07 02:18:14;;;;;;;;;;;26.80;44.70;;;;;;2100678;28;854;-79
2022/07/07 02:19:14;;;;;;;;;;;26.80;44.60;;;;;;2100511;28;924;-79
2022/07/07 02:20:15;;;;;;;;;;;26.80;44.60;;;;;;2100600;28;1122;-79
2022/07/07 02:21:15;;;;;;;;;;;26.80;44.60;;;;;;2099863;28;1410;-80
2022/07/07 02:22:15;;;;;;;;;;;26.80;44.50;;;;;;2091549;28;1420;-79
2022/07/07 02:23:16;;;;;;;;;;;26.80;44.60;;;;;;2100011;28;849;-79
2022/07/07 02:24:16;;;;;;;;;;;26.80;44.50;;;;;;2100597;28;924;-79
2022/07/07 02:25:17;;;;;;;;;;;26.80;44.60;;;;;;2099775;28;1251;-79
2022/07/07 02:26:17;;;;;;;;;;;26.80;44.60;;;;;;2091478;28;1261;-79
2022/07/07 02:27:18;;;;;;;;;;;26.80;44.40;;;;;;2099975;28;889;-79
2022/07/07 02:28:20;;;;;;;;;;;26.80;44.50;;;;;;2100540;28;914;-79
2022/07/07 02:29:21;;;;;;;;;;;26.80;44.50;;;;;;2100514;28;908;-79
2022/07/07 02:30:21;;;;;;;;;;;26.80;44.50;;;;;;2100594;28;960;-79
2022/07/07 02:31:22;;;;;;;;;;;26.80;44.20;;;;;;2100352;28;1068;-79
2022/07/07 02:32:22;;;;;;;;;;;26.80;44.40;;;;;;2099749;28;1438;-79
2022/07/07 02:33:22;;;;;;;;;;;26.80;44.50;;;;;;2099821;28;1048;-79
2022/07/07 02:34:23;;;;;;;;;;;26.80;44.50;;;;;;2099641;28;1235;-79
2022/07/07 02:35:23;;;;;;;;;;;26.80;44.60;;;;;;2099783;28;1032;-79
2022/07/07 02:36:23;;;;;;;;;;;26.80;44.50;;;;;;2100476;28;837;-79
2022/07/07 02:37:24;;;;;;;;;;;26.80;44.40;;;;;;2100440;28;1944;-79
2022/07/07 02:38:25;;;;;;;;;;;26.80;44.50;;;;;;2099506;28;1325;-79
2022/07/07 02:39:25;;;;;;;;;;;26.80;44.50;;;;;;2091606;28;1270;-79
2022/07/07 02:40:25;;;;;;;;;;;26.80;44.60;;;;;;2099841;28;1244;-79
2022/07/07 02:41:26;;;;;;;;;;;26.80;44.40;;;;;;2091618;28;1269;-79
2022/07/07 02:42:26;;;;;;;;;;;26.80;44.60;;;;;;2099767;28;1263;-79
2022/07/07 02:43:27;;;;;;;;;;;26.80;44.60;;;;;;2099820;28;866;-79
2022/07/07 02:44:27;;;;;;;;;;;26.80;44.70;;;;;;2100222;28;1177;-79
2022/07/07 02:45:27;;;;;;;;;;;26.80;44.50;;;;;;2100523;28;834;-79
2022/07/07 02:46:28;;;;;;;;;;;26.80;44.50;;;;;;2100308;28;976;-79
2022/07/07 02:47:28;;;;;;;;;;;26.80;44.40;;;;;;2099804;28;1340;-79
2022/07/07 02:48:29;;;;;;;;;;;26.80;44.60;;;;;;2099849;28;1085;-79
2022/07/07 02:49:29;;;;;;;;;;;26.80;44.60;;;;;;2099886;28;1243;-79
2022/07/07 02:50:29;;;;;;;;;;;26.80;44.50;;;;;;2091377;28;1390;-79
2022/07/07 02:51:30;;;;;;;;;;;26.80;44.50;;;;;;2091340;28;1339;-80
2022/07/07 02:52:30;;;;;;;;;;;26.80;44.30;;;;;;2091262;28;1149;-79
2022/07/07 02:53:30;;;;;;;;;;;26.80;44.50;;;;;;2099613;28;908;-79
2022/07/07 02:54:31;;;;;;;;;;;26.80;44.50;;;;;;2099353;28;1309;-79
2022/07/07 02:55:31;;;;;;;;;;;26.80;44.50;;;;;;2099674;28;889;-79
2022/07/07 02:56:32;;;;;;;;;;;26.80;44.50;;;;;;2100336;28;864;-79
2022/07/07 02:57:32;;;;;;;;;;;26.80;44.60;;;;;;2099330;28;1955;-79
2022/07/07 02:58:33;;;;;;;;;;;26.80;44.60;;;;;;2098995;28;1076;-79
2022/07/07 02:59:34;;;;;;;;;;;26.80;44.50;;;;;;2100321;28;830;-79
2022/07/07 03:00:34;;;;;;;;;;;26.80;44.50;;;;;;2099585;28;1285;-79
2022/07/07 03:01:35;;;;;;;;;;;26.80;44.60;;;;;;2099813;28;868;-79
2022/07/07 03:02:35;;;;;;;;;;;26.80;44.20;;;;;;2100240;28;1070;-79
2022/07/07 03:03:36;;;;;;;;;;;26.80;44.50;;;;;;2100149;28;845;-79
2022/07/07 03:04:36;;;;;;;;;;;26.80;44.60;;;;;;2100206;28;1157;-79
2022/07/07 03:05:37;;;;;;;;;;;26.80;44.40;;;;;;2099430;28;1266;-79
2022/07/07 03:06:37;;;;;;;;;;;26.80;44.40;;;;;;2099794;28;920;-79
2022/07/07 03:07:38;;;;;;;;;;;26.80;44.40;;;;;;2100146;28;1039;-79
2022/07/07 03:08:38;;;;;;;;;;;26.80;44.50;;;;;;2099432;28;1281;-79
2022/07/07 03:09:38;;;;;;;;;;;26.80;44.40;;;;;;2099571;28;886;-79
2022/07/07 03:10:39;;;;;;;;;;;26.80;44.50;;;;;;2100066;28;871;-79
2022/07/07 03:11:40;;;;;;;;;;;26.80;44.50;;;;;;2100085;28;968;-79
2022/07/07 03:12:40;;;;;;;;;;;26.80;44.50;;;;;;2099468;28;1366;-79
2022/07/07 03:13:41;;;;;;;;;;;26.80;44.40;;;;;;2091080;28;1250;-79
2022/07/07 03:14:41;;;;;;;;;;;26.80;44.60;;;;;;2099471;28;1201;-79
2022/07/07 03:15:41;;;;;;;;;;;26.80;44.30;;;;;;2100225;28;814;-79
2022/07/07 03:16:42;;;;;;;;;;;26.80;44.50;;;;;;2099439;28;1879;-79
2022/07/07 03:17:42;;;;;;;;;;;26.80;44.60;;;;;;2091058;28;1365;-79
2022/07/07 03:18:43;;;;;;;;;;;26.80;44.50;;;;;;2099232;28;1352;-79
2022/07/07 03:19:43;;;;;;;;;;;26.80;44.60;;;;;;2091136;28;1357;-79
2022/07/07 03:20:43;;;;;;;;;;;26.80;44.60;;;;;;2099532;28;1087;-79
2022/07/07 03:21:44;;;;;;;;;;;26.80;44.60;;;;;;2099985;28;1027;-79
2022/07/07 03:22:44;;;;;;;;;;;26.80;44.60;;;;;;2099352;28;1159;-79
2022/07/07 03:23:45;;;;;;;;;;;26.80;44.60;;;;;;2091029;28;1221;-79
2022/07/07 03:24:45;;;;;;;;;;;26.80;44.50;;;;;;2099232;28;1345;-79
2022/07/07 03:25:45;;;;;;;;;;;26.80;44.50;;;;;;2091334;28;1339;-79
2022/07/07 03:26:46;;;;;;;;;;;26.80;44.40;;;;;;2099320;28;1357;-79
2022/07/07 03:27:46;;;;;;;;;;;26.80;44.60;;;;;;2091229;28;1265;-79
2022/07/07 03:28:47;;;;;;;;;;;26.80;44.40;;;;;;2099376;28;878;-79
2022/07/07 03:29:47;;;;;;;;;;;26.80;44.50;;;;;;2099313;28;1484;-79
2022/07/07 03:30:48;;;;;;;;;;;26.80;44.40;;;;;;2099506;28;920;-79
2022/07/07 03:31:48;;;;;;;;;;;26.80;44.40;;;;;;2099176;28;1233;-79
2022/07/07 03:32:48;;;;;;;;;;;26.80;44.50;;;;;;2091088;28;1325;-79
2022/07/07 03:33:49;;;;;;;;;;;26.80;44.40;;;;;;2099237;28;845;-79
2022/07/07 03:34:49;;;;;;;;;;;26.80;44.50;;;;;;2100002;28;1177;-79
2022/07/07 03:35:49;;;;;;;;;;;26.70;44.60;;;;;;2100043;28;1039;-80
2022/07/07 03:36:50;;;;;;;;;;;26.80;44.60;;;;;;2099852;28;1898;-79
2022/07/07 03:37:51;;;;;;;;;;;26.80;44.50;;;;;;2099261;28;1239;-79
2022/07/07 03:38:51;;;;;;;;;;;26.80;44.50;;;;;;2091119;28;1205;-80
2022/07/07 03:39:51;;;;;;;;;;;26.80;44.40;;;;;;2099369;28;893;-79
2022/07/07 03:40:52;;;;;;;;;;;26.80;44.30;;;;;;2099269;28;1250;-79
2022/07/07 03:41:53;;;;;;;;;;;26.80;44.40;;;;;;2090982;28;1348;-79
2022/07/07 03:42:53;;;;;;;;;;;26.80;44.40;;;;;;2099286;28;1306;-79
2022/07/07 03:43:53;;;;;;;;;;;26.70;44.20;;;;;;2099257;28;1268;-80
2022/07/07 03:44:54;;;;;;;;;;;26.80;44.40;;;;;;2099365;28;1180;-79
2022/07/07 03:45:54;;;;;;;;;;;26.80;44.40;;;;;;2099093;28;1195;-80
2022/07/07 03:46:55;;;;;;;;;;;26.80;44.50;;;;;;2091096;28;1234;-79
2022/07/07 03:47:55;;;;;;;;;;;26.80;44.30;;;;;;2099084;28;1052;-80
2022/07/07 03:48:55;;;;;;;;;;;26.80;44.40;;;;;;2100033;28;1043;-79
2022/07/07 03:49:56;;;;;;;;;;;26.80;44.40;;;;;;2099902;28;911;-79
2022/07/07 03:50:56;;;;;;;;;;;26.80;44.40;;;;;;2099091;28;1356;-79
2022/07/07 03:51:57;;;;;;;;;;;26.80;44.40;;;;;;2090935;28;1154;-79
2022/07/07 03:52:58;;;;;;;;;;;26.80;44.40;;;;;;2099246;28;822;-79
2022/07/07 03:53:58;;;;;;;;;;;26.80;44.30;;;;;;2099843;28;837;-79
2022/07/07 03:54:59;;;;;;;;;;;26.80;44.30;;;;;;2098887;28;1291;-79
2022/07/07 03:55:59;;;;;;;;;;;26.80;44.30;;;;;;2099245;28;873;-79
2022/07/07 03:57:00;;;;;;;;;;;26.80;44.50;;;;;;2099101;28;1894;-79
2022/07/07 03:58:00;;;;;;;;;;;26.80;44.50;;;;;;2090871;28;1258;-79
2022/07/07 03:59:00;;;;;;;;;;;26.80;44.50;;;;;;2099269;28;833;-79
2022/07/07 04:00:01;;;;;;;;;;;26.80;44.30;;;;;;2099866;28;913;-79
2022/07/07 04:01:01;;;;;;;;;;;26.80;44.30;;;;;;2099108;28;1226;-79
2022/07/07 04:02:01;;;;;;;;;;;26.80;44.40;;;;;;2090910;28;1363;-79
2022/07/07 04:03:02;;;;;;;;;;;26.80;44.20;;;;;;2099160;28;1246;-79
2022/07/07 04:04:04;;;;;;;;;;;26.80;44.30;;;;;;2090762;28;1241;-80
2022/07/07 04:05:05;;;;;;;;;;;26.80;44.40;;;;;;2098899;28;1324;-79
2022/07/07 04:06:05;;;;;;;;;;;26.80;44.30;;;;;;2099287;28;1078;-79
2022/07/07 04:07:06;;;;;;;;;;;26.80;44.40;;;;;;2099916;28;878;-79
2022/07/07 04:08:06;;;;;;;;;;;26.80;44.40;;;;;;2099226;28;1232;-80
2022/07/07 04:09:06;;;;;;;;;;;26.80;44.40;;;;;;2090741;28;1207;-79
2022/07/07 04:10:07;;;;;;;;;;;26.80;44.50;;;;;;2099069;28;1246;-79
2022/07/07 04:11:07;;;;;;;;;;;26.80;44.40;;;;;;2099288;28;862;-80
2022/07/07 04:12:08;;;;;;;;;;;26.80;44.50;;;;;;2098944;28;1152;-79
2022/07/07 04:13:08;;;;;;;;;;;26.80;44.30;;;;;;2090730;28;1361;-79
2022/07/07 04:14:08;;;;;;;;;;;26.80;44.50;;;;;;2099101;28;1068;-79
2022/07/07 04:15:09;;;;;;;;;;;26.80;44.40;;;;;;2098933;28;1287;-79
2022/07/07 04:16:09;;;;;;;;;;;26.80;44.40;;;;;;2098919;28;1016;-79
2022/07/07 04:17:11;;;;;;;;;;;26.80;44.30;;;;;;2098942;28;1906;-79
2022/07/07 04:18:11;;;;;;;;;;;26.80;44.40;;;;;;2099206;28;927;-79
2022/07/07 04:19:11;;;;;;;;;;;26.80;44.40;;;;;;2099150;28;1393;-79
2022/07/07 04:20:12;;;;;;;;;;;26.80;44.40;;;;;;2099246;28;782;-79
2022/07/07 04:21:12;;;;;;;;;;;26.80;44.10;;;;;;2098863;28;1215;-79
2022/07/07 04:22:13;;;;;;;;;;;26.80;44.40;;;;;;2099213;28;877;-79
2022/07/07 04:23:13;;;;;;;;;;;26.80;44.30;;;;;;2099812;28;913;-79
2022/07/07 04:24:13;;;;;;;;;;;26.80;44.40;;;;;;2099139;28;1228;-79
2022/07/07 04:25:14;;;;;;;;;;;26.80;44.30;;;;;;2099152;28;1236;-79
2022/07/07 04:26:14;;;;;;;;;;;26.80;44.40;;;;;;2099749;28;904;-79
2022/07/07 04:27:15;;;;;;;;;;;26.80;44.30;;;;;;2098865;28;1245;-79
2022/07/07 04:28:15;;;;;;;;;;;26.80;44.20;;;;;;2099354;28;894;-79
2022/07/07 04:29:16;;;;;;;;;;;26.80;44.10;;;;;;2099651;28;853;-79
2022/07/07 04:30:16;;;;;;;;;;;26.80;44.30;;;;;;2099871;28;937;-80
2022/07/07 04:31:17;;;;;;;;;;;26.80;44.30;;;;;;2099723;28;1077;-79
2022/07/07 04:32:17;;;;;;;;;;;26.80;44.50;;;;;;2098943;28;1213;-79
2022/07/07 04:33:18;;;;;;;;;;;26.80;44.40;;;;;;2090799;28;1258;-79
2022/07/07 04:34:18;;;;;;;;;;;26.80;44.20;;;;;;2099144;28;1219;-80
2022/07/07 04:35:19;;;;;;;;;;;26.80;44.50;;;;;;2099169;28;1347;-79
2022/07/07 04:36:19;;;;;;;;;;;26.80;44.40;;;;;;2099770;28;884;-79
2022/07/07 04:37:19;;;;;;;;;;;26.80;44.30;;;;;;2099710;28;1902;-79
2022/07/07 04:38:20;;;;;;;;;;;26.80;44.40;;;;;;2099753;28;1110;-80
2022/07/07 04:39:20;;;;;;;;;;;26.70;44.30;;;;;;2099753;28;790;-79
2022/07/07 04:40:20;;;;;;;;;;;26.80;44.20;;;;;;2098960;28;1389;-79
2022/07/07 04:41:21;;;;;;;;;;;26.80;44.40;;;;;;2090807;28;1314;-79
2022/07/07 04:42:21;;;;;;;;;;;26.80;44.30;;;;;;2090863;28;1261;-79
2022/07/07 04:43:22;;;;;;;;;;;26.80;44.40;;;;;;2091126;28;1183;-79
2022/07/07 04:44:22;;;;;;;;;;;26.80;44.40;;;;;;2099483;28;1196;-79
2022/07/07 04:45:22;;;;;;;;;;;26.80;44.40;;;;;;2099746;28;908;-79
2022/07/07 04:46:23;;;;;;;;;;;26.80;44.40;;;;;;2099471;28;818;-79
2022/07/07 04:47:23;;;;;;;;;;;26.80;44.40;;;;;;2098742;28;1290;-79
2022/07/07 04:48:24;;;;;;;;;;;26.80;44.30;;;;;;2090633;28;1238;-79
2022/07/07 04:49:24;;;;;;;;;;;26.80;44.30;;;;;;2099076;28;1363;-79
2022/07/07 04:50:24;;;;;;;;;;;26.80;44.30;;;;;;2099083;28;866;-79
2022/07/07 04:51:25;;;;;;;;;;;26.80;44.20;;;;;;2098916;28;1253;-79
2022/07/07 04:52:25;;;;;;;;;;;26.70;44.30;;;;;;2090686;28;1322;-79
2022/07/07 04:53:25;;;;;;;;;;;26.80;44.40;;;;;;2098917;28;1059;-79
2022/07/07 04:54:26;;;;;;;;;;;26.80;44.40;;;;;;2099064;28;1235;-79
2022/07/07 04:55:26;;;;;;;;;;;26.80;44.30;;;;;;2090664;28;1230;-79
2022/07/07 04:56:27;;;;;;;;;;;26.80;44.40;;;;;;2099088;28;852;-79
2022/07/07 04:57:27;;;;;;;;;;;26.80;44.30;;;;;;2107349;28;1963;-79
2022/07/07 04:58:27;;;;;;;;;;;26.80;44.20;;;;;;2107395;28;845;-79
2022/07/07 04:59:28;;;;;;;;;;;26.80;44.30;;;;;;2099572;28;805;-79
2022/07/07 05:00:28;;;;;;;;;;;26.80;44.40;;;;;;2098872;28;1252;-79
2022/07/07 05:01:28;;;;;;;;;;;26.80;44.30;;;;;;2090706;28;1206;-79
2022/07/07 05:02:29;;;;;;;;;;;26.80;44.20;;;;;;2098709;28;1284;-79
2022/07/07 05:03:29;;;;;;;;;;;26.80;44.30;;;;;;2090694;28;1243;-79
2022/07/07 05:04:30;;;;;;;;;;;26.80;44.40;;;;;;2099149;28;1177;-79
2022/07/07 05:05:30;;;;;;;;;;;26.80;44.30;;;;;;2099536;28;953;-80
2022/07/07 05:06:30;;;;;;;;;;;26.80;44.40;;;;;;2099493;28;1082;-79
2022/07/07 05:07:31;;;;;;;;;;;26.80;44.30;;;;;;2099646;28;885;-79
2022/07/07 05:08:31;;;;;;;;;;;26.80;44.20;;;;;;2099547;28;1032;-79
2022/07/07 05:09:34;;;;;;;;;;;26.80;44.40;;;;;;2098938;28;1382;-79
2022/07/07 05:10:34;;;;;;;;;;;26.80;44.40;;;;;;2099080;28;845;-79
2022/07/07 05:11:35;;;;;;;;;;;26.80;44.30;;;;;;2099673;28;813;-79
2022/07/07 05:12:35;;;;;;;;;;;26.80;44.40;;;;;;2098899;28;1221;-79
2022/07/07 05:13:37;;;;;;;;;;;26.80;44.30;;;;;;2090587;28;1175;-79
2022/07/07 05:14:37;;;;;;;;;;;26.80;44.40;;;;;;2098908;28;1216;-79
2022/07/07 05:15:37;;;;;;;;;;;26.80;44.20;;;;;;2099280;28;1051;-79
2022/07/07 05:16:38;;;;;;;;;;;26.80;44.40;;;;;;2099549;28;814;-79
2022/07/07 05:17:38;;;;;;;;;;;26.80;44.40;;;;;;2098827;28;1886;-80
2022/07/07 05:18:38;;;;;;;;;;;26.80;44.40;;;;;;2098807;28;917;-79
2022/07/07 05:19:39;;;;;;;;;;;26.80;44.40;;;;;;2098889;28;1303;-79
2022/07/07 05:20:40;;;;;;;;;;;26.80;44.40;;;;;;2090588;28;1372;-79
2022/07/07 05:21:40;;;;;;;;;;;26.80;44.30;;;;;;2099937;28;1028;-79
2022/07/07 05:22:40;;;;;;;;;;;26.80;44.40;;;;;;2100411;28;1218;-79
2022/07/07 05:23:41;;;;;;;;;;;26.80;44.30;;;;;;2100576;28;861;-79
2022/07/07 05:24:41;;;;;;;;;;;26.80;44.30;;;;;;2101009;28;1291;-79
2022/07/07 05:25:41;;;;;;;;;;;26.80;44.40;;;;;;2100478;28;1245;-79
2022/07/07 05:26:42;;;;;;;;;;;26.80;44.20;;;;;;2100423;28;1094;-79
2022/07/07 05:27:44;;;;;;;;;;;26.80;44.30;;;;;;2101126;28;864;-79
2022/07/07 05:28:44;;;;;;;;;;;26.80;44.30;;;;;;2100205;28;1249;-79
2022/07/07 05:29:44;;;;;;;;;;;26.80;44.20;;;;;;2092182;28;1211;-80
2022/07/07 05:30:45;;;;;;;;;;;26.80;44.40;;;;;;2100314;28;878;-79
2022/07/07 05:31:45;;;;;;;;;;;26.80;44.20;;;;;;2100146;28;1157;-79
2022/07/07 05:32:46;;;;;;;;;;;26.80;44.40;;;;;;2092014;28;1268;-80
2022/07/07 05:33:46;;;;;;;;;;;26.80;44.10;;;;;;2092039;28;1355;-80
2022/07/07 05:34:46;;;;;;;;;;;26.80;44.20;;;;;;2100260;28;1181;-79
2022/07/07 05:35:47;;;;;;;;;;;26.80;44.30;;;;;;2101018;28;876;-79
2022/07/07 05:36:47;;;;;;;;;;;26.80;44.10;;;;;;2100229;28;1961;-79
2022/07/07 05:37:47;;;;;;;;;;;26.80;44.40;;;;;;2092025;28;1341;-79
2022/07/07 05:38:48;;;;;;;;;;;26.80;44.30;;;;;;2100366;28;1063;-79
2022/07/07 05:39:49;;;;;;;;;;;26.80;44.30;;;;;;2100099;28;1381;-79
2022/07/07 05:40:49;;;;;;;;;;;26.80;44.40;;;;;;2091894;28;1419;-80
2022/07/07 05:41:50;;;;;;;;;;;26.80;44.30;;;;;;2100252;28;814;-79
2022/07/07 05:42:50;;;;;;;;;;;26.80;44.30;;;;;;2108627;28;1252;-79
2022/07/07 05:43:50;;;;;;;;;;;26.80;44.40;;;;;;2100245;28;1490;-79
2022/07/07 05:44:51;;;;;;;;;;;26.80;42.40;;;;;;2100293;28;1310;-80
2022/07/07 05:45:51;;;;;;;;;;;26.70;41.80;;;;;;2100751;28;884;-79
2022/07/07 05:46:51;;;;;;;;;;;26.70;41.40;;;;;;2100969;28;949;-79
2022/07/07 05:47:52;;;;;;;;;;;26.70;41.30;;;;;;2100677;28;1012;-80
2022/07/07 05:48:52;;;;;;;;;;;26.70;41.40;;;;;;2100723;28;875;-79
2022/07/07 05:49:52;;;;;;;;;;;26.60;41.70;;;;;;2100782;28;1004;-80
2022/07/07 05:50:53;;;;;;;;;;;26.60;40.60;;;;;;2100911;28;844;-80
2022/07/07 05:51:55;;;;;;;;;;;26.60;40.40;;;;;;2100867;28;894;-80
2022/07/07 05:52:55;;;;;;;;;;;26.60;40.40;;;;;;2100892;28;829;-80
2022/07/07 05:53:57;;;;;;;;;;;26.60;40.70;;;;;;2100781;28;901;-80
2022/07/07 05:54:57;;;;;;;;;;;26.60;40.70;;;;;;2100070;28;1295;-79
2022/07/07 05:55:58;;;;;;;;;;;26.60;40.50;;;;;;2091964;28;1341;-80
2022/07/07 05:56:58;;;;;;;;;;;26.50;40.60;;;;;;2100057;28;1953;-79
2022/07/07 05:57:58;;;;;;;;;;;26.50;40.20;;;;;;2100518;28;1055;-80
2022/07/07 05:58:59;;;;;;;;;;;26.50;39.30;;;;;;2100011;28;1240;-80
2022/07/07 05:59:59;;;;;;;;;;;26.50;40.00;;;;;;2091953;28;1277;-79